Accueil
METAR-TAF:

METAR-TAF

Aéroports :

Beyrouth, Liban

latitude: 33-49N, longitude: 035-29E, altitude: 29 m

Observation

Le bulletin a été fait il y a 43 minutes, à 22:00 UTC
Vent 2 kt de sud
Température 26°C
Humidité 79%
Pression 1010 hPa
Visibilité: 7000 m
Ciel clair

METAR: OLBA 272200Z 18002KT 7000 SKC 26/22 Q1010

Heure: 01:43 (22:43 UTC)

Prévision

Le bulletin a été fait il y a 6 heures et 43 minutes, à 16:00 UTC
Prévision valable du 27 à 18 UTC au 28 à 24 UTC
Vent 8 kt de sud-ouest
Visibilité: 8000 m
Ciel clair
Evoluant progressivement
du 28 à 06 UTC au 28 à 09 UTC
Vent 12 kt de ouest/sud-ouest
Quelques nuages à une hauteur de 2600 ft
Temporairement
du 28 à 06 UTC au 28 à 18 UTC
Visibilité: 5000 m
brume
Evoluant progressivement
du 28 à 18 UTC au 28 à 21 UTC
Vent 8 kt de sud-ouest

TAF: OLBA 271600Z 2718/2824 22008KT 8000 SKC BECMG 2806/2809 24012KT FEW026 TEMPO 2806/2818 5000 BR BECMG 2818/2821 22008KT

Observations et prévisions météorologiques de plus de 4000 aéroports (messages METAR et TAF).

Les stations disponibles sont représentées par des disques jaunes et rouges sur la carte.

Passer la souris dessus pour voir le nom de la station.

Cliquer dessus pour voir les observations et prévisions météorologiques.

Pour changer de carte: cliquez sur les boutons verts avec une croix noire pour zoomer, sur le bouton vert avec un tiret pour effectuer un zoom arrière, ou sur les flèches vertes pour les cartes adjacentes.


METAR-TAF: